Latest Weather Observations for Applethorpe

IDN60801

Issued at 12:32 pm EDT Saturday 25 March 2017 (issued every 30 minutes, with the page automatically refreshed every 10 minutes)

About weather observations | Map of weather stations | Latest weather observations for NSW | Other Formats
Station Details ID: 041175 Name: APPLETHORPE Lat: -28.62 Lon: 151.95 Height: 871.6 m
Data from the previous 72 hours. | See also: Recent months at Applethorpe
Date/Time
EDT
Temp
°C
App
Temp
°C
Dew
Point
°C
Rel
Hum
%
Delta-T
°C
Wind Press
QNH
hPa
Press
MSL
hPa
Rain since
9am
mm
Dir  Spd
km/h
Gust
km/h
Spd
kts
Gust
kts
25/12:30pm 22.0 23.2 16.8 72 3.3 ESE 6 11 3 6 1020.0 1016.0 0.0
25/12:00pm 22.0 23.0 16.8 72 3.3 E 7 15 4 8 1020.5 1016.5 0.0
25/11:30am 21.6 22.7 17.0 75 2.9 ESE 7 17 4 9 1020.7 1016.7 0.0
25/11:00am 21.2 22.2 16.8 76 2.8 ENE 7 17 4 9 1020.9 1016.8 0.0
25/10:30am 19.6 20.5 16.0 80 2.2 ESE 6 13 3 7 1020.6 1016.6 0.0
25/10:00am 18.4 19.0 15.8 85 1.6 SE 7 13 4 7 1021.1 1017.1 0.0
25/09:30am 18.1 18.8 15.6 85 1.5 E 6 11 3 6 1020.9 1016.8 0.0
25/09:00am 17.8 18.4 15.7 87 1.3 ENE 7 19 4 10 1020.4 1016.4 0.0
25/08:30am 16.8 17.3 15.5 92 0.8 E 7 13 4 7 1020.2 1016.2 0.0
25/08:00am 16.3 16.9 15.3 94 0.6 E 6 9 3 5 1020.0 1016.0 0.0
25/07:30am 16.0 16.6 15.3 96 0.4 E 6 11 3 6 1019.8 1015.7 0.0
25/07:00am 15.9 16.5 15.2 96 0.4 E 6 11 3 6 1019.5 1015.5 0.0
25/06:30am 15.9 16.8 15.2 96 0.4 E 4 7 2 4 1019.5 1015.5 0.0
25/06:00am 15.9 16.5 15.2 96 0.4 E 6 9 3 5 1019.2 1015.2 0.0
25/05:30am 15.9 16.8 15.2 96 0.4 ESE 4 9 2 5 1019.1 1015.1 0.0
25/05:00am 15.9 16.5 15.2 96 0.4 E 6 11 3 6 1018.9 1014.9 0.0
25/04:30am 16.0 17.0 15.3 96 0.4 E 4 7 2 4 1018.8 1014.7 0.0
25/04:00am 16.0 16.6 15.2 95 0.5 E 6 13 3 7 1018.8 1014.7 0.0
25/03:30am 16.1 16.6 15.1 94 0.6 ESE 6 15 3 8 1019.0 1015.0 0.0
25/03:00am 16.1 16.4 15.1 94 0.6 ESE 7 17 4 9 1019.4 1015.4 0.0
25/02:30am 16.1 16.4 14.9 93 0.7 E 7 17 4 9 1019.8 1015.7 0.0
25/02:00am 16.1 15.9 14.8 92 0.8 E 9 15 5 8 1020.0 1016.0 0.0
25/01:30am 16.1 16.3 14.6 91 0.9 E 7 13 4 7 1020.3 1016.3 0.0
25/01:00am 16.1 16.4 14.6 91 0.9 E 6 9 3 5 1020.6 1016.6 0.0
25/12:30am 16.1 16.2 14.4 90 1.0 E 7 15 4 8 1020.9 1016.8 0.0
25/12:00am 16.3 16.5 14.6 90 1.0 E 7 13 4 7 1021.0 1017.0 0.0
 
Date/Time
EDT
Temp
°C
App
Temp
°C
Dew
Point
°C
Rel
Hum
%
Delta-T
°C
Wind Press
QNH
hPa
Press
MSL
hPa
Rain since
9am
mm
Dir  Spd
km/h
Gust
km/h
Spd
kts
Gust
kts
24/11:30pm 16.2 16.6 14.7 91 0.9 E 6 13 3 7 1020.7 1016.7 0.0
24/11:00pm 16.1 15.5 14.6 91 0.9 NE 11 24 6 13 1020.3 1016.3 0.0
24/10:30pm 16.3 15.8 14.8 91 0.9 E 11 22 6 12 1020.9 1016.8 0.0
24/10:00pm 16.4 16.2 14.7 90 1.0 ESE 9 19 5 10 1021.2 1017.2 0.0
24/09:30pm 16.5 16.0 14.8 90 1.0 ESE 11 24 6 13 1021.1 1017.1 0.0
24/09:00pm 16.5 16.5 15.3 93 0.7 ESE 9 24 5 13 1020.7 1016.7 0.0
24/08:30pm 16.7 16.7 15.2 91 0.9 E 9 19 5 10 1020.5 1016.5 0.0
24/08:00pm 16.7 17.1 15.2 91 0.9 ESE 7 17 4 9 1020.6 1016.6 0.0
24/07:30pm 16.9 16.3 15.6 92 0.8 ESE 13 26 7 14 1020.0 1016.0 0.0
24/07:00pm 18.6 18.6 17.3 92 0.8 ESE 13 26 7 14 1019.2 1015.2 0.0
24/06:30pm 20.1 20.6 17.4 84 1.7 E 11 26 6 14 1018.8 1014.7 0.0
24/06:00pm 21.0 21.5 17.4 80 2.3 E 11 20 6 11 1018.6 1014.5 0.0
24/05:30pm 22.5 23.1 17.7 74 3.1 E 11 19 6 10 1018.0 1014.0 0.0
24/05:00pm 22.2 23.2 17.7 75 2.9 E 9 22 5 12 1017.7 1013.6 0.0
24/04:30pm 22.5 23.9 17.8 75 3.0 E 7 17 4 9 1017.9 1013.9 0.0
24/04:00pm 22.9 23.7 17.4 71 3.5 ESE 9 17 5 9 1018.0 1014.0 0.0
24/03:30pm 23.9 24.6 17.0 65 4.4 E 9 15 5 8 1017.9 1013.9 0.0
24/03:00pm 23.8 24.9 17.2 66 4.2 E 7 11 4 6 1018.1 1014.1 0.0
24/02:30pm 23.0 24.3 17.5 71 3.5 E 7 13 4 7 1018.7 1014.6 0.0
24/02:00pm 24.0 25.3 17.6 67 4.1 E 7 15 4 8 1019.1 1015.1 0.0
24/01:30pm 23.6 25.2 18.2 71 3.5 ENE 7 13 4 7 1019.3 1015.3 0.0
24/01:00pm 23.2 24.9 18.4 74 3.1 ENE 7 13 4 7 1019.8 1015.7 0.0
24/12:30pm 22.3 23.9 18.3 78 2.6 ENE 7 13 4 7 1020.3 1016.3 0.0
24/12:00pm 20.9 22.5 17.9 83 1.9 ENE 6 9 3 5 1020.9 1016.8 0.0
24/11:30am 20.6 23.3 17.8 84 1.8 CALM 0 0 0 0 1021.0 1017.0 0.0
24/11:00am 20.5 22.8 17.8 84 1.7 NE 2 6 1 3 1021.0 1017.0 0.0
24/10:30am 20.0 22.3 17.8 87 1.4 E 2 6 1 3 1021.0 1017.0 0.0
24/10:00am 19.3 21.1 17.4 89 1.2 NE 4 6 2 3 1020.7 1016.7 1.4
24/09:30am 19.1 21.3 17.5 90 1.0 ENE 2 6 1 3 1020.6 1016.6 1.2
24/09:00am 18.6 20.4 17.3 92 0.8 E 4 9 2 5 1020.2 1016.2 1.2
24/08:30am 17.8 19.5 17.2 96 0.4 E 4 6 2 3 1019.8 1015.7 1.2
24/08:00am 17.3 18.9 17.0 98 0.2 ENE 4 9 2 5 1019.3 1015.3 1.2
24/07:30am 17.0 18.9 16.7 98 0.2 ESE 2 6 1 3 1019.2 1015.2 1.2
24/07:00am 17.3 18.9 17.0 98 0.2 ENE 4 7 2 4 1018.7 1014.6 1.2
24/06:30am 17.4 19.8 17.1 98 0.2 CALM 0 2 0 1 1018.8 1014.7 1.2
24/06:00am 17.3 19.7 17.0 98 0.2 CALM 0 2 0 1 1018.7 1014.6 1.2
24/05:30am 17.6 20.1 17.3 98 0.2 CALM 0 0 0 0 1018.5 1014.4 1.2
24/05:00am 17.9 20.5 17.6 98 0.2 CALM 0 4 0 2 1018.3 1014.3 1.2
24/04:30am 18.1 20.7 17.6 97 0.3 CALM 0 2 0 1 1018.2 1014.2 1.2
24/04:00am 18.0 20.3 17.7 98 0.2 NE 2 4 1 2 1018.5 1014.4 1.2
24/03:30am 18.4 21.2 17.9 97 0.3 CALM 0 2 0 1 1018.8 1014.7 1.2
24/03:00am 18.4 21.3 18.1 98 0.2 CALM 0 0 0 0 1019.3 1015.3 1.2
24/02:30am 18.5 21.3 18.0 97 0.3 CALM 0 0 0 0 1019.5 1015.5 1.2
24/02:00am 18.5 20.6 18.0 97 0.3 ENE 4 6 2 3 1019.7 1015.6 1.2
24/01:30am 18.6 20.7 18.1 97 0.3 ENE 4 7 2 4 1019.9 1015.9 1.2
24/01:00am 18.7 20.3 17.9 95 0.5 E 6 9 3 5 1020.1 1016.1 1.2
24/12:30am 18.8 21.3 18.2 96 0.4 E 2 6 1 3 1020.2 1016.2 1.2
24/12:00am 18.9 21.1 18.3 96 0.4 E 4 9 2 5 1020.2 1016.2 1.2
 
Date/Time
EDT
Temp
°C
App
Temp
°C
Dew
Point
°C
Rel
Hum
%
Delta-T
°C
Wind Press
QNH
hPa
Press
MSL
hPa
Rain since
9am
mm
Dir  Spd
km/h
Gust
km/h
Spd
kts
Gust
kts
23/11:30pm 19.1 21.4 18.5 96 0.4 NE 4 7 2 4 1020.3 1016.3 1.2
23/11:00pm 19.1 21.4 18.5 96 0.4 ENE 4 6 2 3 1020.6 1016.6 1.2
23/10:30pm 19.0 21.6 18.4 96 0.4 E 2 6 1 3 1020.7 1016.7 1.2
23/10:00pm 18.9 21.1 18.3 96 0.4 E 4 7 2 4 1020.9 1016.8 1.2
23/09:30pm 18.8 20.9 18.2 96 0.4 ENE 4 9 2 5 1020.5 1016.5 1.2
23/09:00pm 18.8 20.5 18.0 95 0.5 NE 6 7 3 4 1020.2 1016.2 1.2
23/08:30pm 19.2 21.0 18.4 95 0.5 ENE 6 11 3 6 1020.0 1016.0 1.2
23/08:00pm 19.4 21.3 18.6 95 0.5 E 6 11 3 6 1019.9 1015.9 1.2
23/07:30pm 19.7 22.1 18.8 94 0.6 ENE 4 9 2 5 1019.4 1015.4 1.0
23/07:00pm 20.5 22.7 19.1 92 0.9 ENE 6 9 3 5 1019.1 1015.1 1.0
23/06:30pm 21.0 23.4 18.8 87 1.4 NE 4 7 2 4 1019.1 1015.1 1.0
23/06:00pm 21.7 23.7 18.8 83 1.9 NE 6 9 3 5 1018.8 1014.7 0.8
23/05:30pm 20.7 22.6 18.5 87 1.4 NNE 6 9 3 5 1018.6 1014.5 0.8
23/05:00pm 20.5 22.6 19.0 91 1.0 NNE 6 9 3 5 1018.6 1014.5 0.8
23/04:30pm 20.8 22.5 18.0 84 1.8 NNE 6 9 3 5 1018.7 1014.6 0.8
23/04:00pm 21.0 22.9 17.7 81 2.1 NE 4 7 2 4 1018.7 1014.6 0.8
23/03:30pm 21.6 24.1 19.0 85 1.7 NE 4 7 2 4 1018.8 1014.7 0.8
23/03:00pm 20.8 23.3 19.0 89 1.2 NE 4 7 2 4 1018.8 1014.7 0.8
23/02:30pm 20.8 23.4 19.3 91 1.0 ENE 4 6 2 3 1019.0 1015.0 0.8
23/02:00pm 20.9 23.1 19.1 89 1.2 NE 6 9 3 5 1019.2 1015.2 0.4
23/01:30pm 21.8 23.8 18.7 82 2.0 ESE 6 11 3 6 1019.4 1015.4 0.4
23/01:00pm 22.5 24.7 19.1 81 2.2 WSW 6 9 3 5 1019.8 1015.7 0.4
23/12:30pm 22.1 25.2 19.4 85 1.8 SSW 2 4 1 2 1020.2 1016.2 0.2
23/12:00pm 23.0 25.2 17.5 71 3.5 NNW 2 6 1 3 1020.3 1016.3 0.0
23/11:30am 22.8 25.4 18.5 77 2.8 NNW 2 4 1 2 1020.5 1016.5 0.0
23/11:00am 22.3 24.1 17.3 73 3.2 SSW 4 9 2 5 1020.7 1016.7 0.0
23/10:30am 21.9 24.1 17.5 76 2.8 SW 2 6 1 3 1020.9 1016.8 0.0
23/10:00am 21.5 24.6 18.6 83 1.9 CALM 0 0 0 0 1020.6 1016.6 3.2
23/09:30am 20.3 23.0 18.6 90 1.1 WNW 2 4 1 2 1020.5 1016.5 3.2
23/09:00am 19.4 22.3 18.3 93 0.7 CALM 0 0 0 0 1020.4 1016.4 3.2
23/08:30am 18.5 21.4 18.2 98 0.2 CALM 0 4 0 2 1020.0 1016.0 3.2
23/08:00am 18.1 20.8 17.8 98 0.2 CALM 0 0 0 0 1019.5 1015.5 3.2
23/07:30am 17.6 20.2 17.4 99 0.1 CALM 0 0 0 0 1019.4 1015.4 3.2
23/07:00am 17.2 19.6 17.0 99 0.1 CALM 0 0 0 0 1019.2 1015.2 3.0
23/06:30am 17.4 20.0 17.4 100 0.0 CALM 0 4 0 2 1018.9 1014.9 3.0
23/06:00am 17.1 19.5 16.9 99 0.1 CALM 0 0 0 0 1018.7 1014.6 3.0
23/05:30am 17.4 19.9 17.2 99 0.1 CALM 0 0 0 0 1018.6 1014.5 3.0
23/05:00am 17.8 20.4 17.5 98 0.2 CALM 0 0 0 0 1018.3 1014.3 3.0
23/04:30am 18.0 20.7 17.8 99 0.1 CALM 0 0 0 0 1018.3 1014.3 3.0
23/04:00am 18.1 20.9 17.9 99 0.1 CALM 0 0 0 0 1018.5 1014.4 3.0
23/03:30am 18.1 20.9 17.9 99 0.1 CALM 0 0 0 0 1018.7 1014.6 3.0
23/03:00am 18.0 20.7 17.8 99 0.1 CALM 0 0 0 0 1018.7 1014.6 3.0
23/02:30am 18.2 21.0 17.9 98 0.2 CALM 0 0 0 0 1019.0 1015.0 3.0
23/02:00am 18.4 21.2 17.9 97 0.3 CALM 0 0 0 0 1019.3 1015.3 3.0
23/01:30am 18.4 21.2 17.9 97 0.3 CALM 0 2 0 1 1019.4 1015.4 3.0
23/01:00am 18.6 20.7 18.0 96 0.4 NNE 4 7 2 4 1019.7 1015.6 3.0
23/12:30am 18.8 20.9 18.0 95 0.5 NNE 4 7 2 4 1019.9 1015.9 3.0
23/12:00am 18.9 21.1 18.4 97 0.3 NE 4 6 2 3 1019.8 1015.7 3.0
 
Date/Time
EDT
Temp
°C
App
Temp
°C
Dew
Point
°C
Rel
Hum
%
Delta-T
°C
Wind Press
QNH
hPa
Press
MSL
hPa
Rain since
9am
mm
Dir  Spd
km/h
Gust
km/h
Spd
kts
Gust
kts
22/11:30pm 19.0 21.6 18.5 97 0.3 NE 2 4 1 2 1020.0 1016.0 3.0
22/11:00pm 19.0 21.4 18.7 98 0.2 NE 4 6 2 3 1019.9 1015.9 2.8
22/10:30pm 19.1 21.4 18.5 96 0.4 NNE 4 6 2 3 1020.0 1016.0 2.4
22/10:00pm 19.1 22.1 18.5 96 0.4 CALM 0 0 0 0 1020.0 1016.0 2.4
22/09:30pm 19.1 22.2 18.6 97 0.3 CALM 0 0 0 0 1019.8 1015.7 2.0
22/09:00pm 19.3 22.3 18.5 95 0.5 CALM 0 0 0 0 1019.2 1015.2 2.0
22/08:30pm 19.4 22.1 18.6 95 0.5 NE 2 4 1 2 1019.0 1015.0 2.0
22/08:00pm 19.6 22.7 18.7 94 0.6 CALM 0 0 0 0 1018.8 1014.7 2.0
22/07:30pm 19.8 22.5 18.6 93 0.8 NE 2 4 1 2 1018.8 1014.7 2.0
22/07:00pm 20.3 22.5 18.4 89 1.2 NNE 4 7 2 4 1018.6 1014.5 1.8
22/06:30pm 20.8 22.7 18.6 87 1.4 NNE 6 9 3 5 1018.3 1014.3 1.8
22/06:00pm 21.3 24.3 19.2 88 1.4 NNE 2 6 1 3 1018.1 1014.1 1.8
22/05:30pm 21.1 24.3 19.7 92 0.9 SSE 2 4 1 2 1017.9 1013.9 1.8
22/05:00pm 20.9 24.1 19.8 93 0.7 SSW 2 4 1 2 1017.8 1013.8 1.8
22/04:30pm 20.7 23.4 19.5 93 0.8 SSW 4 4 2 2 1017.8 1013.8 1.8
22/04:00pm 20.5 23.6 19.4 93 0.7 SSE 2 7 1 4 1018.0 1014.0 1.8
22/03:30pm 21.2 24.4 19.8 92 0.9 SSW 2 7 1 4 1018.1 1014.1 1.6
22/03:00pm 22.4 24.2 18.2 77 2.7 W 6 9 3 5 1018.2 1014.2 0.6
22/02:30pm 22.5 25.1 18.3 77 2.7 NW 2 6 1 3 1018.6 1014.5 0.6
22/02:00pm 21.6 23.5 18.5 82 2.0 N 6 13 3 7 1019.0 1015.0 0.6

Other Formats:

Comma delimited format used in spreadsheet applications
http://www.bom.gov.au/fwo/IDN60801/IDN60801.94553.axf

JavaScript Object Notation format (JSON) in row-major order
http://www.bom.gov.au/fwo/IDN60801/IDN60801.94553.json